Main page
METAR-TAF:

METAR-TAF

Airports :

Esenboğa International Airport

Ankara Esenboğa, Turkey

latitude: 40-07N, longitude: 032-59E, elevation: 953 m

Current weather observation

The report was made 24 minutes ago, at 16:50 UTC
Wind 4 kt from the South/Southwest
Temperature 12°C
Humidity 35%
Pressure 1024 hPa
Visibility 10 km or more
no clouds below 1500 m and no cumulonimbus

METAR: LTAC 211650Z 21004KT CAVOK 12/M03 Q1024 NOSIG RMK RWY21L 02003KT 360V060 RWY03L VRB02KT RWY21R /////KT

Time: 20:14 (17:14 UTC)

Forecast

The report was made 6 hours and 34 minutes ago, at 10:40 UTC
Forecast valid from 21 at 12 UTC to 22 at 12 UTC
Wind 2 kt from variable directions
Visibility 10 km or more
Few clouds at a height of 4000 ft
Becoming
from 21 at 12 UTC to 21 at 14 UTC
Visibility 10 km or more
no clouds below 1500 m and no cumulonimbus

TAF: LTAC 211040Z 2112/2212 VRB02KT 9999 FEW040 BECMG 2112/2114 CAVOK

Weather observations and forecasts of more than 4000 airports (METAR and TAF reports).

The available stations are represented by yellow and red dots on the map.

Hover mouse over dot to see the name of the station.

Then click to see weather observations and forecasts.

To change the map : click on the green buttons with a black cross to zoom in, on the green button with a dash to zoom out, or on the green arrows for adjacent maps.


METAR-TAF: